Windom, MN

11:26 AM CDT on October 22, 2017 (GMT -0500)
Windom Municipal

Weather History for KMWM - January, 2012

Change the Weather History Date:

Tuesday, January 3, 2012

  Actual Average Record
Temperature  
Mean Temperature 18 °F -  
Max Temperature 30 °F 24 °F 43 °F (1962)
Min Temperature 5 °F 5 °F -16 °F (1969)
Degree Days  
Heating Degree Days 48    
Moisture  
Dew Point 14 °F    
Average Humidity 78    
Maximum Humidity 92    
Minimum Humidity 68    
Precipitation  
Precipitation 0.00 in - - ()
Sea Level Pressure  
Sea Level Pressure 30.03 in    
Wind  
Wind Speed 11 mph (South)    
Max Wind Speed 26 mph    
Max Gust Speed 32 mph    
Visibility 10 miles    
Events      
Averages and records for this station are not official NWS values.
T = Trace of Precipitation, MM = Missing Value Source: NWS Daily Summary

Daily Weather History Graph

Daily Weather History Graph

Search for Another Location

Airport or City:

Trip Planner

Search our weather history database for the weather conditions in past years. The results will help you decide how hot, cold, wet, or windy it might be!

Date:

Astronomy

Jan. 03, 2012 Rise Set
Actual Time 7:54 AM CST 4:54 PM CST
Civil Twilight 7:22 AM CST 5:27 PM CST
Nautical Twilight 6:45 AM CST 6:03 PM CST
Astronomical Twilight 6:10 AM CST 6:38 PM CST
Moon 12:45 PM CST (1/3) 2:43 AM CST (1/3)
Length of Visible Light 10h 05m
Length of Day
8h 59m
Waxing Gibbous, 73% of the Moon is Illuminated
Jan 3
Waxing Gibbous
Jan 9
Full
Jan 16
Last Quarter
Jan 23
New
Jan 30
First Quarter

Hourly Weather History & Observations

Time (CST) Temp. Windchill Dew Point Humidity Pressure Visibility Wind Dir Wind Speed Gust Speed Precip Events Conditions
12:12 AM 6.8 °F -2.0 °F 3.2 °F 85% 30.39 in 10.0 mi South 4.6 mph - N/A   Unknown
12:33 AM 6.8 °F -2.0 °F 3.2 °F 85% 30.39 in 10.0 mi South 4.6 mph - N/A   Unknown
12:52 AM 6.8 °F -3.5 °F 3.2 °F 85% 30.36 in 10.0 mi SSE 5.8 mph - N/A   Unknown
1:13 AM 5.0 °F -2.1 °F 3.2 °F 92% 30.36 in 10.0 mi SSE 3.5 mph - N/A   Unknown
1:32 AM 5.0 °F -4.1 °F 1.4 °F 85% 30.34 in 10.0 mi South 4.6 mph - N/A   Unknown
1:52 AM 6.8 °F -2.0 °F 3.2 °F 85% 30.34 in 10.0 mi South 4.6 mph - N/A   Unknown
2:13 AM 6.8 °F -5.9 °F 3.2 °F 85% 30.33 in 10.0 mi SSE 8.1 mph - N/A   Unknown
2:52 AM 8.6 °F -2.6 °F 6.8 °F 92% 30.30 in 10.0 mi South 6.9 mph - N/A   Unknown
3:12 AM 8.6 °F -2.6 °F 6.8 °F 92% 30.29 in 10.0 mi South 6.9 mph - N/A   Unknown
3:32 AM 8.6 °F -3.7 °F 6.8 °F 92% 30.26 in 10.0 mi SSE 8.1 mph - N/A   Unknown
3:52 AM 10.4 °F -3.3 °F 5.0 °F 79% 30.25 in 10.0 mi SSE 10.4 mph - N/A   Unknown
4:12 AM 10.4 °F -4.1 °F 6.8 °F 85% 30.23 in 10.0 mi SSE 11.5 mph - N/A   Unknown
4:33 AM 10.4 °F -4.1 °F 6.8 °F 85% 30.21 in 10.0 mi SSE 11.5 mph - N/A   Unknown
4:52 AM 12.2 °F -1.0 °F 6.8 °F 79% 30.19 in 10.0 mi South 10.4 mph 16.1 mph N/A   Unknown
5:12 AM 12.2 °F 0.7 °F 6.8 °F 79% 30.18 in 10.0 mi South 8.1 mph - N/A   Unknown
5:33 AM 12.2 °F -0.2 °F 6.8 °F 79% 30.17 in 10.0 mi South 9.2 mph - N/A   Unknown
5:52 AM 12.2 °F -1.8 °F 6.8 °F 79% 30.17 in 10.0 mi South 11.5 mph - N/A   Unknown
6:12 AM 12.2 °F -3.1 °F 6.8 °F 79% 30.16 in 10.0 mi South 13.8 mph 19.6 mph N/A   Unknown
6:33 AM 12.2 °F -4.3 °F 6.8 °F 79% 30.13 in 10.0 mi South 16.1 mph 21.9 mph N/A   Unknown
6:52 AM 14.0 °F -0.2 °F 8.6 °F 79% 30.12 in 10.0 mi South 12.7 mph 21.9 mph N/A   Unknown
7:33 AM 14.0 °F -2.0 °F 8.6 °F 79% 30.09 in 10.0 mi South 16.1 mph 24.2 mph N/A   Unknown
7:52 AM 14.0 °F -3.0 °F 8.6 °F 79% 30.07 in 10.0 mi South 18.4 mph 24.2 mph N/A   Unknown
8:12 AM 15.8 °F -0.6 °F 8.6 °F 73% 30.05 in 10.0 mi South 18.4 mph 25.3 mph N/A   Unknown
8:33 AM 15.8 °F -1.1 °F 8.6 °F 73% 30.04 in 10.0 mi South 19.6 mph 26.5 mph N/A   Unknown
8:52 AM 15.8 °F -1.1 °F 8.6 °F 73% 30.03 in 10.0 mi South 19.6 mph 26.5 mph N/A   Unknown
9:13 AM 17.6 °F 0.5 °F 10.4 °F 73% 30.01 in 10.0 mi South 21.9 mph 31.1 mph N/A   Unknown
9:32 AM 17.6 °F 0.9 °F 10.4 °F 73% 29.98 in 10.0 mi South 20.7 mph 32.2 mph N/A   Unknown
9:53 AM 17.6 °F -0.3 °F 10.4 °F 73% 29.97 in 10.0 mi South 24.2 mph 31.1 mph N/A   Unknown
10:12 AM 19.4 °F 2.5 °F 12.2 °F 74% 29.97 in 10.0 mi South 23.0 mph 31.1 mph N/A   Unknown
10:33 AM 21.2 °F 4.9 °F 12.2 °F 68% 29.96 in 10.0 mi South 23.0 mph 28.8 mph N/A   Unknown
10:53 AM 21.2 °F 3.9 °F 14.0 °F 74% 29.94 in 10.0 mi South 26.5 mph 32.2 mph N/A   Unknown
11:12 AM 23.0 °F 6.9 °F 15.8 °F 74% 29.94 in 10.0 mi South 24.2 mph 29.9 mph N/A   Unknown
11:33 AM 24.8 °F 10.3 °F 15.8 °F 69% 29.92 in 10.0 mi South 20.7 mph 31.1 mph N/A   Unknown
11:53 AM 24.8 °F 13.4 °F 17.6 °F 74% 29.94 in 10.0 mi SSW 12.7 mph 18.4 mph N/A   Unknown
12:12 PM 26.6 °F 13.4 °F 19.4 °F 74% 29.91 in 10.0 mi South 18.4 mph 21.9 mph N/A   Unknown
12:33 PM 28.4 °F 14.4 °F 19.4 °F 69% 29.89 in 10.0 mi SSW 23.0 mph - N/A   Unknown
12:53 PM 28.4 °F 15.1 °F 19.4 °F 69% 29.88 in 10.0 mi SSW 20.7 mph 25.3 mph N/A   Unknown
1:12 PM 28.4 °F 16.6 °F 19.4 °F 69% 29.88 in 10.0 mi South 16.1 mph 21.9 mph N/A   Unknown
1:33 PM 28.4 °F 18.5 °F 21.2 °F 74% 29.89 in 10.0 mi SSW 11.5 mph - N/A   Unknown
1:53 PM 28.4 °F 19.7 °F 21.2 °F 74% 29.89 in 10.0 mi SSW 9.2 mph 17.3 mph N/A   Unknown
2:12 PM 30.2 °F 20.8 °F 21.2 °F 69% 29.87 in 10.0 mi SW 11.5 mph - N/A   Unknown
2:33 PM 30.2 °F 19.3 °F 21.2 °F 69% 29.85 in 10.0 mi SSW 15.0 mph - N/A   Unknown
3:12 PM 30.2 °F 21.9 °F 21.2 °F 69% 29.86 in 10.0 mi SSW 9.2 mph - N/A   Unknown
3:33 PM 30.2 °F 21.3 °F 21.2 °F 69% 29.86 in 10.0 mi SSW 10.4 mph - N/A   Unknown
3:52 PM 28.4 °F 20.4 °F 21.2 °F 74% 29.87 in 10.0 mi SSW 8.1 mph - N/A   Unknown
4:12 PM 28.4 °F 21.2 °F 23.0 °F 80% 29.88 in 10.0 mi SSW 6.9 mph - N/A   Unknown
4:33 PM 28.4 °F 20.4 °F 21.2 °F 74% 29.88 in 10.0 mi SSW 8.1 mph - N/A   Unknown
4:52 PM 26.6 °F 16.8 °F 21.2 °F 80% 29.86 in 10.0 mi SSW 10.4 mph - N/A   Unknown
5:12 PM 26.6 °F 16.8 °F 21.2 °F 80% 29.87 in 10.0 mi SSW 10.4 mph - N/A   Unknown
5:33 PM 26.6 °F 17.5 °F 21.2 °F 80% 29.87 in 10.0 mi SW 9.2 mph - N/A   Unknown
5:52 PM 26.6 °F 16.8 °F 23.0 °F 86% 29.87 in 10.0 mi SW 10.4 mph - N/A   Unknown
6:12 PM 26.6 °F 16.2 °F 21.2 °F 80% 29.86 in 10.0 mi SSW 11.5 mph - N/A   Unknown
6:33 PM 26.6 °F 16.2 °F 21.2 °F 80% 29.87 in 10.0 mi SW 11.5 mph - N/A   Unknown
6:52 PM 26.6 °F 16.2 °F 21.2 °F 80% 29.88 in 10.0 mi SW 11.5 mph - N/A   Unknown
7:13 PM 26.6 °F 18.2 °F 21.2 °F 80% 29.88 in 10.0 mi SW 8.1 mph - N/A   Unknown
7:33 PM 28.4 °F 21.2 °F 21.2 °F 74% 29.87 in 10.0 mi SW 6.9 mph - N/A   Unknown
7:52 PM 28.4 °F 19.1 °F 21.2 °F 74% 29.86 in 10.0 mi WSW 10.4 mph - N/A   Unknown
8:13 PM 28.4 °F 21.2 °F 21.2 °F 74% 29.85 in 10.0 mi SW 6.9 mph - N/A   Unknown
8:33 PM 26.6 °F 18.2 °F 21.2 °F 80% 29.85 in 10.0 mi SSW 8.1 mph - N/A   Unknown
8:52 PM 26.6 °F 17.5 °F 21.2 °F 80% 29.85 in 10.0 mi SW 9.2 mph - N/A   Unknown
9:13 PM 24.8 °F 17.9 °F 21.2 °F 86% 29.85 in 10.0 mi SW 5.8 mph - N/A   Unknown
9:32 PM 24.8 °F 15.3 °F 21.2 °F 86% 29.85 in 10.0 mi WSW 9.2 mph - N/A   Unknown
9:52 PM 24.8 °F 16.1 °F 21.2 °F 86% 29.88 in 10.0 mi West 8.1 mph - N/A   Unknown
10:13 PM 24.8 °F 16.1 °F 21.2 °F 86% 29.88 in 10.0 mi West 8.1 mph - N/A   Unknown
10:32 PM 24.8 °F 13.4 °F 21.2 °F 86% 29.89 in 10.0 mi West 12.7 mph - N/A   Unknown
10:53 PM 28.4 °F 18.0 °F 24.8 °F 86% 29.90 in 10.0 mi WNW 12.7 mph - N/A   Unknown
11:13 PM 33.8 °F 21.9 °F 28.4 °F 81% 29.90 in 10.0 mi NW 21.9 mph 25.3 mph N/A   Unknown
11:32 PM 33.8 °F 22.2 °F 28.4 °F 81% 29.91 in 10.0 mi NW 20.7 mph 24.2 mph N/A   Unknown
11:53 PM 33.8 °F 22.5 °F 28.4 °F 81% 29.91 in 10.0 mi NW 19.6 mph 26.5 mph N/A   Unknown